createdAt,value
2018-07-19T04:14:04.915Z,17.10
2018-07-19T04:16:33.990Z,17.10
2018-07-19T04:19:03.076Z,17.10
2018-07-19T04:21:32.144Z,17.10
2018-07-19T04:26:29.860Z,17.20
2018-07-19T04:28:58.936Z,17.20
2018-07-19T04:31:27.980Z,17.30
2018-07-19T04:33:57.051Z,17.30
2018-07-19T04:36:26.137Z,17.40
2018-07-19T04:38:55.210Z,17.40
2018-07-19T04:41:24.279Z,17.40
2018-07-19T04:43:53.319Z,17.50
2018-07-19T04:46:22.440Z,17.60
2018-07-19T04:48:51.508Z,17.60
2018-07-19T04:51:20.573Z,17.70
2018-07-19T04:53:49.683Z,17.70
2018-07-19T04:56:18.728Z,17.80
2018-07-19T04:58:47.780Z,17.90
2018-07-19T05:01:16.835Z,18.00
2018-07-19T05:03:45.944Z,18.10
2018-07-19T05:06:14.977Z,18.20
2018-07-19T05:08:44.011Z,18.40
2018-07-19T05:11:13.317Z,18.50
2018-07-19T05:13:42.445Z,18.60
2018-07-19T05:16:11.538Z,18.70
2018-07-19T05:18:41.191Z,18.80
2018-07-19T05:21:10.261Z,18.90
2018-07-19T05:23:39.483Z,19.00
2018-07-19T05:26:08.603Z,19.20
2018-07-19T05:28:37.620Z,19.30
2018-07-19T05:31:06.819Z,19.30
2018-07-19T05:33:35.903Z,19.40
2018-07-19T05:36:04.967Z,19.30
2018-07-19T05:38:34.041Z,19.30
2018-07-19T05:41:03.084Z,19.20
2018-07-19T05:43:32.276Z,19.20
2018-07-19T05:48:30.047Z,19.10
2018-07-19T05:50:59.146Z,19.10
2018-07-19T05:53:28.196Z,19.10
2018-07-19T05:55:57.231Z,19.20
2018-07-19T05:58:26.292Z,19.20
2018-07-19T06:00:55.340Z,19.20
2018-07-19T06:03:24.426Z,19.30
2018-07-19T06:05:53.463Z,19.30
2018-07-19T06:08:22.675Z,19.40
2018-07-19T06:10:51.740Z,19.40
2018-07-19T06:13:20.831Z,19.40
2018-07-19T06:15:49.872Z,19.40
2018-07-19T06:18:18.968Z,19.40
2018-07-19T06:20:48.013Z,19.50
2018-07-19T06:23:17.128Z,19.50
2018-07-19T06:25:46.175Z,19.60
2018-07-19T06:28:15.471Z,19.60
2018-07-19T06:30:44.533Z,19.60
2018-07-19T06:33:13.707Z,19.60
2018-07-19T06:35:42.808Z,19.70
2018-07-19T06:38:11.927Z,19.70
2018-07-19T06:40:41.006Z,19.80
2018-07-19T06:43:10.618Z,19.80
2018-07-19T06:45:40.902Z,19.90
2018-07-19T06:48:10.003Z,20.00
2018-07-19T06:50:39.109Z,20.00
2018-07-19T06:53:08.177Z,20.10
2018-07-19T06:55:37.252Z,20.10
2018-07-19T06:58:06.560Z,20.10
2018-07-19T07:00:36.775Z,20.20
2018-07-19T07:03:06.391Z,20.30
2018-07-19T07:05:36.301Z,20.40
2018-07-19T07:08:05.452Z,20.50
2018-07-19T07:10:34.508Z,20.50
2018-07-19T07:13:03.660Z,20.60
2018-07-19T07:15:32.771Z,20.80
2018-07-19T07:18:01.834Z,20.80
2018-07-19T07:20:30.894Z,20.80
2018-07-19T07:22:59.969Z,20.90
2018-07-19T07:25:34.143Z,21.00
2018-07-19T07:28:03.721Z,21.10
2018-07-19T07:30:33.253Z,21.20
2018-07-19T07:33:02.383Z,21.30
2018-07-19T07:35:32.087Z,21.30
2018-07-19T07:38:01.242Z,21.30
2018-07-19T07:40:30.404Z,21.40
2018-07-19T07:45:28.825Z,21.50
2018-07-19T07:47:59.029Z,21.60
2018-07-19T07:50:29.087Z,21.50
2018-07-19T07:52:58.187Z,21.60
2018-07-19T07:55:27.388Z,21.70
2018-07-19T07:57:57.186Z,21.70
2018-07-19T08:00:26.339Z,21.90
2018-07-19T08:02:55.467Z,21.90
2018-07-19T08:05:24.571Z,22.00
2018-07-19T08:07:54.550Z,22.00
2018-07-19T08:10:23.891Z,22.00
2018-07-19T08:12:53.271Z,22.00
2018-07-19T08:15:23.392Z,22.10
2018-07-19T08:17:53.486Z,22.20
2018-07-19T08:20:23.415Z,22.20
2018-07-19T08:22:52.644Z,22.30
2018-07-19T08:25:24.354Z,22.20
2018-07-19T08:27:55.116Z,22.30
2018-07-19T08:30:26.115Z,22.30
2018-07-19T08:32:55.915Z,22.40
2018-07-19T08:35:25.071Z,22.50
2018-07-19T08:37:54.120Z,22.50
2018-07-19T08:40:23.471Z,22.50
2018-07-19T08:42:52.929Z,22.50
2018-07-19T08:45:22.257Z,22.60
2018-07-19T08:47:51.362Z,22.70
2018-07-19T08:50:21.227Z,22.80
2018-07-19T08:52:50.315Z,23.00
2018-07-19T08:55:19.404Z,23.00
2018-07-19T08:57:48.452Z,23.10
2018-07-19T09:00:17.541Z,23.20
2018-07-19T09:02:46.592Z,23.20
2018-07-19T09:05:15.668Z,23.30
2018-07-19T09:07:44.698Z,23.20
2018-07-19T09:10:13.996Z,23.10
2018-07-19T09:12:43.057Z,23.10
2018-07-19T09:15:12.145Z,23.10
2018-07-19T09:17:41.256Z,23.10
2018-07-19T09:20:10.289Z,23.10
2018-07-19T09:22:39.430Z,23.10
2018-07-19T09:25:08.557Z,23.10
2018-07-19T09:27:37.589Z,23.10
2018-07-19T09:30:07.356Z,23.10
2018-07-19T09:32:36.446Z,23.20
2018-07-19T09:35:05.576Z,23.30
2018-07-19T09:37:34.605Z,23.30
2018-07-19T09:40:03.704Z,23.40
2018-07-19T09:42:32.829Z,23.40
2018-07-19T09:45:01.916Z,23.40
2018-07-19T09:47:30.951Z,23.40
2018-07-19T09:50:00.047Z,23.30
2018-07-19T09:52:29.100Z,23.30
2018-07-19T09:54:59.629Z,23.30
2018-07-19T09:57:29.645Z,23.20
2018-07-19T09:59:58.791Z,23.20
2018-07-19T10:02:27.827Z,23.20
2018-07-19T10:04:56.905Z,23.20
2018-07-19T10:07:25.972Z,23.20
2018-07-19T10:09:55.058Z,23.20
2018-07-19T10:12:24.128Z,23.20
2018-07-19T10:14:53.187Z,23.20
2018-07-19T10:17:22.292Z,23.20
2018-07-19T10:19:51.340Z,23.20
2018-07-19T10:22:20.433Z,23.30
2018-07-19T10:24:49.487Z,23.30
2018-07-19T10:27:18.559Z,23.30
2018-07-19T10:29:47.628Z,23.30
2018-07-19T10:32:16.856Z,23.30
2018-07-19T10:34:45.823Z,23.30
2018-07-19T10:37:15.010Z,23.30
2018-07-19T10:39:44.112Z,23.30
2018-07-19T10:42:13.228Z,23.20
2018-07-19T10:47:11.352Z,23.10
2018-07-19T10:49:40.400Z,23.10
2018-07-19T10:52:09.429Z,23.10
2018-07-19T10:54:38.488Z,23.30
2018-07-19T10:57:07.626Z,23.40
2018-07-19T10:59:36.652Z,23.50
2018-07-19T11:02:05.896Z,23.50
2018-07-19T11:04:34.940Z,23.40
2018-07-19T11:07:04.029Z,23.50
2018-07-19T11:09:33.129Z,23.50
2018-07-19T11:16:59.470Z,23.50
2018-07-19T11:21:57.231Z,23.40
2018-07-19T11:24:26.279Z,23.40
2018-07-19T11:26:55.406Z,23.40
2018-07-19T11:29:24.454Z,23.40
2018-07-19T11:31:54.961Z,23.40
2018-07-19T11:34:24.077Z,23.40
2018-07-19T11:36:53.132Z,23.40
2018-07-19T11:39:22.176Z,23.40
2018-07-19T11:41:51.285Z,23.40
2018-07-19T11:44:20.363Z,23.40
2018-07-19T11:46:49.441Z,23.40
2018-07-19T11:49:18.601Z,23.50
2018-07-19T11:51:47.673Z,23.50
2018-07-19T11:54:16.695Z,23.50
2018-07-19T11:56:45.847Z,23.50
2018-07-19T11:59:14.892Z,23.40
2018-07-19T12:01:43.988Z,23.40
2018-07-19T12:04:13.227Z,23.40
2018-07-19T12:06:42.432Z,23.50
2018-07-19T12:09:12.428Z,23.60
2018-07-19T12:11:41.449Z,23.70
2018-07-19T12:14:10.528Z,23.60
2018-07-19T12:16:39.568Z,23.70
2018-07-19T12:19:08.632Z,23.70
2018-07-19T12:21:37.694Z,23.70
2018-07-19T12:24:06.861Z,23.70
2018-07-19T12:26:35.921Z,23.70
2018-07-19T12:29:05.076Z,23.70
2018-07-19T12:31:34.201Z,23.80
2018-07-19T12:34:03.256Z,23.80
2018-07-19T12:36:32.382Z,23.90
2018-07-19T12:39:01.466Z,23.90
2018-07-19T12:41:30.506Z,23.90
2018-07-19T12:43:59.556Z,23.80
2018-07-19T12:46:28.609Z,23.80
2018-07-19T12:48:57.731Z,23.80
2018-07-19T12:51:26.716Z,23.70
2018-07-19T12:53:55.871Z,23.80
2018-07-19T12:56:24.964Z,23.80
2018-07-19T12:58:54.024Z,23.80
2018-07-19T13:03:51.906Z,23.80
2018-07-19T13:06:21.071Z,23.80
2018-07-19T13:08:50.560Z,23.90
2018-07-19T13:11:19.650Z,23.90
2018-07-19T13:13:48.699Z,24.00
2018-07-19T13:16:17.817Z,24.00
2018-07-19T13:18:46.906Z,24.00
2018-07-19T13:21:16.058Z,24.00
2018-07-19T13:23:45.368Z,24.00
2018-07-19T13:26:14.385Z,24.00
2018-07-19T13:28:43.429Z,23.90
2018-07-19T13:31:12.512Z,23.90
2018-07-19T13:33:41.586Z,24.00
2018-07-19T13:36:10.657Z,24.00
2018-07-19T13:38:39.711Z,24.00
2018-07-19T13:41:08.814Z,24.10
2018-07-19T13:43:37.889Z,24.10
2018-07-19T13:46:06.925Z,24.10
2018-07-19T13:48:36.006Z,24.10
2018-07-19T13:51:05.048Z,24.10
2018-07-19T13:53:51.755Z,24.10
2018-07-19T13:56:20.830Z,24.10
2018-07-19T14:01:25.329Z,23.90
2018-07-19T14:03:54.573Z,23.90
2018-07-19T14:06:23.649Z,23.90
2018-07-19T14:08:52.780Z,23.90
2018-07-19T14:11:21.899Z,23.90
2018-07-19T14:13:50.957Z,24.00
2018-07-19T14:16:20.032Z,24.00
2018-07-19T14:18:49.191Z,24.10
2018-07-19T14:21:18.256Z,24.10
2018-07-19T14:23:47.304Z,24.10
2018-07-19T14:26:16.400Z,24.10
2018-07-19T14:28:45.492Z,24.10
2018-07-19T14:31:14.558Z,24.10
2018-07-19T14:33:43.583Z,24.20
2018-07-19T14:36:12.784Z,24.20
2018-07-19T14:38:41.911Z,24.20
2018-07-19T14:41:10.993Z,24.20
2018-07-19T14:43:40.156Z,24.20
2018-07-19T14:46:09.338Z,24.20
2018-07-19T14:48:38.412Z,24.20
2018-07-19T14:51:07.783Z,24.20
2018-07-19T14:53:36.896Z,24.20
2018-07-19T14:56:06.090Z,24.30
2018-07-19T14:58:35.183Z,24.30
2018-07-19T15:01:04.237Z,24.30
2018-07-19T15:03:33.308Z,24.30
2018-07-19T15:06:02.432Z,24.30
2018-07-19T15:08:31.526Z,24.30
2018-07-19T15:11:00.582Z,24.20
2018-07-19T15:13:29.682Z,24.10
2018-07-19T15:15:58.740Z,24.10
2018-07-19T15:18:27.793Z,24.10
2018-07-19T15:20:56.844Z,24.10
2018-07-19T15:23:25.924Z,24.10
2018-07-19T15:25:55.018Z,24.10
2018-07-19T15:28:24.040Z,24.20
2018-07-19T15:30:53.128Z,24.20
2018-07-19T15:33:27.470Z,24.10
2018-07-19T15:35:56.528Z,24.20
2018-07-19T15:40:55.051Z,24.20
2018-07-19T15:43:24.173Z,24.20
2018-07-19T15:45:53.328Z,24.20
2018-07-19T15:48:22.408Z,24.20
2018-07-19T15:53:20.128Z,24.20
2018-07-19T15:55:49.204Z,24.20
2018-07-19T15:58:18.227Z,24.30
2018-07-19T16:00:47.365Z,24.30
2018-07-19T16:03:16.460Z,24.30
2018-07-19T16:05:45.558Z,24.30
2018-07-19T16:08:14.591Z,24.30
2018-07-19T16:10:43.644Z,24.30
2018-07-19T16:13:12.695Z,24.20
2018-07-19T16:15:41.776Z,24.20
2018-07-19T16:18:10.823Z,24.20
2018-07-19T16:20:39.938Z,24.30
2018-07-19T16:23:08.955Z,24.30
2018-07-19T16:25:38.111Z,24.30
2018-07-19T16:28:07.173Z,24.30
2018-07-19T16:30:36.199Z,24.20
2018-07-19T16:33:05.498Z,24.10
2018-07-19T16:35:34.555Z,24.10
2018-07-19T16:38:03.629Z,24.10
2018-07-19T16:40:32.704Z,24.00
2018-07-19T16:43:01.805Z,24.00
2018-07-19T16:45:30.859Z,24.00
2018-07-19T16:47:59.913Z,23.90
2018-07-19T16:50:29.175Z,23.80
2018-07-19T16:52:58.213Z,23.70
2018-07-19T16:55:27.427Z,23.60
2018-07-19T16:57:56.476Z,23.50
2018-07-19T17:00:25.559Z,23.40
2018-07-19T17:02:54.593Z,23.40
2018-07-19T17:05:23.648Z,23.30
2018-07-19T17:07:52.909Z,23.20
2018-07-19T17:10:22.047Z,23.10
2018-07-19T17:12:51.124Z,23.00
2018-07-19T17:15:20.184Z,23.00
2018-07-19T17:17:49.292Z,22.80
2018-07-19T17:20:18.353Z,22.80
2018-07-19T17:22:47.433Z,22.70
2018-07-19T17:25:16.502Z,22.70
2018-07-19T17:27:45.633Z,22.60
2018-07-19T17:30:14.711Z,22.60
2018-07-19T17:32:43.795Z,22.50
2018-07-19T17:37:41.646Z,22.40
2018-07-19T17:40:10.689Z,22.30
2018-07-19T17:42:39.847Z,22.30
2018-07-19T17:45:09.043Z,22.20
2018-07-19T17:47:38.277Z,22.20
2018-07-19T17:50:07.837Z,22.10
2018-07-19T17:52:36.923Z,22.10
2018-07-19T17:55:05.979Z,22.10
2018-07-19T18:00:04.000Z,21.90
2018-07-19T18:02:33.956Z,21.90
2018-07-19T18:05:03.023Z,21.80
2018-07-19T18:07:32.097Z,21.80
2018-07-19T18:10:01.128Z,21.70
2018-07-19T18:12:30.212Z,21.70
2018-07-19T18:14:59.257Z,21.60
2018-07-19T18:17:28.449Z,21.60
2018-07-19T18:22:26.290Z,21.40
2018-07-19T18:24:55.444Z,21.40
2018-07-19T18:27:24.508Z,21.30
2018-07-19T18:29:53.811Z,21.20
2018-07-19T18:32:23.047Z,21.10
2018-07-19T18:34:52.110Z,21.00
2018-07-19T18:37:21.193Z,20.90
2018-07-19T18:39:50.412Z,20.80
2018-07-19T18:42:19.505Z,20.80
2018-07-19T18:44:48.676Z,20.70
2018-07-19T18:47:17.792Z,20.60
2018-07-19T18:49:47.092Z,20.50
2018-07-19T18:52:16.318Z,20.40
2018-07-19T18:54:45.946Z,20.30
2018-07-19T18:57:15.315Z,20.20
2018-07-19T18:59:44.772Z,20.20
2018-07-19T19:02:14.040Z,20.10
2018-07-19T19:04:43.199Z,20.00
2018-07-19T19:07:12.481Z,19.80
2018-07-19T19:09:41.560Z,19.70
2018-07-19T19:12:10.818Z,19.50
2018-07-19T19:14:40.125Z,19.40
2018-07-19T19:17:09.295Z,19.30
2018-07-19T19:19:38.706Z,19.20
2018-07-19T19:22:07.916Z,19.00
2018-07-19T19:24:37.298Z,18.90
2018-07-19T19:27:06.649Z,18.80
2018-07-19T19:29:35.973Z,18.70
2018-07-19T19:32:05.133Z,18.60
2018-07-19T19:34:34.501Z,18.50
2018-07-19T19:37:03.685Z,18.40
2018-07-19T19:39:32.760Z,18.30
2018-07-19T19:42:01.837Z,18.20
2018-07-19T19:44:30.948Z,18.00
2018-07-19T19:47:00.132Z,17.90
2018-07-19T19:49:29.229Z,17.80
2018-07-19T19:51:58.520Z,17.70
2018-07-19T19:54:27.865Z,17.60
2018-07-19T19:56:57.157Z,17.50
2018-07-19T19:59:26.316Z,17.40
2018-07-19T20:01:55.599Z,17.30
2018-07-19T20:04:24.709Z,17.10
2018-07-19T20:06:53.852Z,17.00
2018-07-19T20:09:23.095Z,16.90
2018-07-19T20:11:52.265Z,16.80
2018-07-19T20:16:50.534Z,16.60
2018-07-19T20:19:19.980Z,16.60
2018-07-19T20:21:49.549Z,16.50
2018-07-19T20:24:19.034Z,16.40
2018-07-19T20:26:48.396Z,16.30
2018-07-19T20:29:18.614Z,16.20
2018-07-19T20:31:47.849Z,16.10
2018-07-19T20:34:20.448Z,16.00
2018-07-19T20:36:47.032Z,15.90
2018-07-19T20:39:16.391Z,15.80
2018-07-19T20:41:48.051Z,15.80
2018-07-19T20:44:17.157Z,15.70
2018-07-19T20:46:46.332Z,15.70
2018-07-19T20:49:15.561Z,15.60
2018-07-19T20:51:45.067Z,15.50
2018-07-19T20:54:14.327Z,15.50
2018-07-19T20:56:43.399Z,15.40
2018-07-19T20:59:12.744Z,15.30
2018-07-19T21:01:42.010Z,15.20
2018-07-19T21:04:11.205Z,15.20
2018-07-19T21:06:40.317Z,15.10
2018-07-19T21:09:11.099Z,14.90
2018-07-19T21:14:10.258Z,14.80
2018-07-19T21:16:39.338Z,14.70
2018-07-19T21:19:08.429Z,14.60
2018-07-19T21:21:37.495Z,14.60
2018-07-19T21:24:06.604Z,14.60
2018-07-19T21:26:35.761Z,14.50
2018-07-19T21:29:04.820Z,14.40
2018-07-19T21:31:33.926Z,14.40
2018-07-19T21:34:03.000Z,14.30
2018-07-19T21:36:32.063Z,14.20
2018-07-19T21:39:01.130Z,14.10
2018-07-19T21:41:30.161Z,14.10
2018-07-19T21:46:27.856Z,14.00
2018-07-19T21:48:56.934Z,13.90
2018-07-19T21:51:26.134Z,13.90
2018-07-19T21:53:55.231Z,13.80
2018-07-19T21:56:24.465Z,13.70
2018-07-19T21:58:53.540Z,13.70
2018-07-19T22:01:22.637Z,13.60
2018-07-19T22:03:51.724Z,13.50
2018-07-19T22:06:20.884Z,13.50
